Time;durP1;ratioP1;P1;durP2;ratioP2;P2;SDS_P1;SDS_P2;PMS_P1;PMS_P2;Temp;Humidity;BMP_temperature;BMP_pressure;BME280_temperature;BME280_humidity;BME280_pressure;Samples;Min_cycle;Max_cycle;Signal;HPM_P1;HPM_P2
2022/08/18 00:00:12;;;;;;;16.90;13.80;;;;;;;18.54;91.67;96395.16;108457;1267;23021;-77
2022/08/18 00:03:08;;;;;;;15.70;14.00;;;;;;;18.37;91.62;96396.47;108558;1268;24332;-77
2022/08/18 00:05:36;;;;;;;15.60;14.00;;;;;;;18.28;91.92;96392.31;108485;1268;22473;-77
2022/08/18 00:08:06;;;;;;;15.00;13.60;;;;;;;18.23;92.03;96390.77;108321;1267;29352;-78
2022/08/18 00:10:34;;;;;;;14.90;13.50;;;;;;;18.23;92.07;96390.85;108553;1268;23907;-77
2022/08/18 00:13:03;;;;;;;15.70;14.00;;;;;;;18.23;92.11;96391.61;108507;1267;22643;-77
2022/08/18 00:15:31;;;;;;;15.60;14.00;;;;;;;18.22;92.22;96389.77;108534;1267;22644;-77
2022/08/18 00:18:00;;;;;;;15.20;13.70;;;;;;;18.26;92.24;96396.09;108451;1268;35397;-77
2022/08/18 00:20:28;;;;;;;17.20;15.50;;;;;;;18.29;92.12;96396.40;108525;1266;23839;-77
2022/08/18 00:22:56;;;;;;;17.10;15.70;;;;;;;18.34;92.51;96395.36;108506;1268;22529;-77
2022/08/18 00:25:25;;;;;;;18.00;16.20;;;;;;;18.32;92.36;96400.20;108532;1268;22563;-77
2022/08/18 00:27:54;;;;;;;19.00;17.10;;;;;;;18.29;92.56;96403.04;108489;1268;29046;-77
2022/08/18 00:30:22;;;;;;;20.20;18.10;;;;;;;18.30;93.03;96405.75;108529;1268;24231;-77
2022/08/18 00:32:53;;;;;;;19.50;17.60;;;;;;;18.32;93.25;96405.83;108478;1268;22640;-77
2022/08/18 00:35:25;;;;;;;19.80;18.00;;;;;;;18.33;93.25;96405.85;108532;1268;25047;-77
2022/08/18 00:37:55;;;;;;;18.60;16.60;;;;;;;18.33;93.10;96407.39;108318;1267;23058;-77
2022/08/18 00:40:27;;;;;;;19.80;18.10;;;;;;;18.33;93.09;96408.46;108558;1267;24225;-77
2022/08/18 00:42:58;;;;;;;20.10;18.20;;;;;;;18.35;93.54;96409.89;108532;1267;22485;-77
2022/08/18 00:45:31;;;;;;;20.50;18.50;;;;;;;18.36;93.64;96409.09;108548;1268;22555;-77
2022/08/18 00:48:00;;;;;;;19.10;17.30;;;;;;;18.34;93.57;96419.13;108451;1268;30442;-77
2022/08/18 00:50:34;;;;;;;19.50;17.80;;;;;;;18.35;93.68;96419.23;108573;1268;22552;-78
2022/08/18 00:53:06;;;;;;;21.00;19.00;;;;;;;18.40;94.12;96416.40;108391;1267;22558;-77
2022/08/18 00:55:35;;;;;;;21.80;19.50;;;;;;;18.44;94.41;96406.67;108582;1268;25307;-77
2022/08/18 00:58:10;;;;;;;21.60;19.50;;;;;;;18.46;94.67;96406.05;108453;1267;27597;-77
2022/08/18 01:00:39;;;;;;;22.40;20.30;;;;;;;18.46;94.51;96407.88;108576;1268;24350;-77
2022/08/18 01:03:12;;;;;;;19.50;17.50;;;;;;;18.44;94.19;96407.73;108554;1268;22534;-77
2022/08/18 01:05:45;;;;;;;18.90;16.70;;;;;;;18.34;93.65;96408.33;108564;1267;22602;-77
2022/08/18 01:08:15;;;;;;;18.40;16.60;;;;;;;18.26;93.59;96404.36;108323;1267;38526;-78
2022/08/18 01:10:43;;;;;;;;;;;;;;;18.26;93.77;96398.30;108402;1267;22545;-77
2022/08/18 01:13:12;;;;;;;18.20;16.40;;;;;;;18.24;93.68;96394.02;108511;1268;22538;-77
2022/08/18 01:15:40;;;;;;;21.40;19.50;;;;;;;18.27;94.02;96389.07;108380;1268;22545;-78
2022/08/18 01:24:05;;;;;;;20.30;18.30;;;;;;;18.45;94.34;96394.36;108538;1268;22549;-78
2022/08/18 01:26:37;;;;;;;20.10;18.20;;;;;;;18.47;93.93;96389.18;108577;1268;22560;-78
2022/08/18 01:29:10;;;;;;;20.10;17.90;;;;;;;18.44;93.70;96383.64;108461;1267;26821;-77
2022/08/18 01:31:46;;;;;;;18.60;16.80;;;;;;;18.42;93.86;96384.48;108505;1268;22528;-77
2022/08/18 01:34:15;;;;;;;20.40;18.40;;;;;;;18.35;93.31;96382.73;108538;1267;22561;-77
2022/08/18 01:36:44;;;;;;;21.20;19.30;;;;;;;18.32;94.04;96384.10;108543;1268;22640;-77
2022/08/18 01:39:13;;;;;;;23.00;20.80;;;;;;;18.38;94.40;96386.23;108450;1268;29993;-78
2022/08/18 01:41:41;;;;;;;21.40;19.40;;;;;;;18.47;94.77;96383.89;108516;1268;22662;-77
2022/08/18 01:44:19;;;;;;;21.30;19.10;;;;;;;18.55;94.82;96383.69;108336;1268;22568;-77
2022/08/18 01:46:47;;;;;;;21.30;18.90;;;;;;;18.62;94.77;96380.33;108398;1268;22631;-78
2022/08/18 01:49:18;;;;;;;22.70;20.60;;;;;;;18.67;94.75;96379.05;108468;1267;22544;-78
2022/08/18 01:51:47;;;;;;;23.00;20.60;;;;;;;18.71;94.59;96382.67;108551;1268;22986;-78
2022/08/18 01:54:16;;;;;;;21.30;19.20;;;;;;;18.71;94.34;96385.14;108394;1267;23851;-77
2022/08/18 01:56:44;;;;;;;21.90;19.90;;;;;;;18.67;94.48;96384.11;108518;1268;22476;-78
2022/08/18 01:59:13;;;;;;;21.80;19.80;;;;;;;18.62;94.32;96382.45;108466;1268;30915;-78
2022/08/18 02:01:44;;;;;;;20.50;18.60;;;;;;;18.58;94.12;96378.64;108518;1267;22589;-78
2022/08/18 02:04:11;;;;;;;;;;;;;;;18.53;94.08;96378.42;108594;1268;25363;-77
2022/08/18 02:06:41;;;;;;;22.70;20.60;;;;;;;18.46;94.31;96374.27;108476;1268;22547;-77
2022/08/18 02:09:09;;;;;;;22.40;20.20;;;;;;;18.42;94.42;96375.67;108507;1268;25683;-78
2022/08/18 02:11:38;;;;;;;21.90;19.70;;;;;;;18.43;94.72;96374.02;108574;1268;22549;-78
2022/08/18 02:14:06;;;;;;;22.80;20.70;;;;;;;18.45;94.92;96368.35;108542;1268;22594;-78
2022/08/18 02:16:36;;;;;;;22.30;20.20;;;;;;;18.48;94.91;96366.30;108509;1268;22532;-78
2022/08/18 02:19:05;;;;;;;22.70;20.60;;;;;;;18.50;94.88;96366.58;108319;1267;25219;-77
2022/08/18 02:21:33;;;;;;;23.40;21.10;;;;;;;18.50;94.76;96372.64;108506;1267;23913;-78
2022/08/18 02:24:02;;;;;;;21.80;19.80;;;;;;;18.49;94.77;96374.21;108563;1268;22561;-78
2022/08/18 02:26:30;;;;;;;23.40;21.20;;;;;;;18.43;94.67;96375.09;108570;1268;22532;-78
2022/08/18 02:28:59;;;;;;;22.60;20.50;;;;;;;18.37;94.84;96369.61;108497;1268;37347;-78
2022/08/18 02:31:28;;;;;;;21.30;19.40;;;;;;;18.31;94.58;96366.44;108535;1267;22563;-77
2022/08/18 02:33:56;;;;;;;21.90;19.80;;;;;;;18.26;94.50;96368.55;108389;1267;25361;-78
2022/08/18 02:36:25;;;;;;;18.60;16.80;;;;;;;18.22;94.19;96368.20;108540;1268;22545;-78
2022/08/18 02:38:55;;;;;;;17.00;15.40;;;;;;;18.06;93.69;96368.34;108495;1268;22767;-78
2022/08/18 02:41:27;;;;;;;17.70;15.20;;;;;;;17.95;94.08;96367.52;108500;1267;22649;-78
2022/08/18 02:43:55;;;;;;;17.00;15.30;;;;;;;17.93;94.32;96360.94;108572;1268;22562;-78
2022/08/18 02:46:27;;;;;;;15.50;13.80;;;;;;;17.95;94.13;96361.54;108595;1267;22575;-77
2022/08/18 02:48:55;;;;;;;16.60;14.90;;;;;;;17.90;93.60;96363.75;108518;1268;25266;-77
2022/08/18 02:51:24;;;;;;;15.00;13.50;;;;;;;17.78;93.50;96362.59;108544;1268;22539;-77
2022/08/18 02:53:52;;;;;;;15.30;13.70;;;;;;;17.73;93.51;96362.63;108565;1268;22532;-78
2022/08/18 02:56:23;;;;;;;16.50;14.60;;;;;;;17.64;93.38;96359.23;108515;1268;22537;-78
2022/08/18 02:58:54;;;;;;;14.70;13.30;;;;;;;17.55;93.76;96363.24;108300;1267;23673;-78
2022/08/18 03:01:25;;;;;;;15.00;13.50;;;;;;;17.43;94.00;96367.33;108547;1268;24377;-78
2022/08/18 03:03:55;;;;;;;15.20;13.60;;;;;;;17.35;94.39;96365.53;108407;1268;22601;-78
2022/08/18 03:06:25;;;;;;;13.80;12.40;;;;;;;17.39;94.73;96360.45;108530;1267;22566;-78
2022/08/18 03:08:56;;;;;;;13.50;12.10;;;;;;;17.32;94.38;96359.38;108468;1268;30270;-78
2022/08/18 03:11:26;;;;;;;16.10;14.50;;;;;;;17.13;94.49;96360.45;108368;1268;22579;-77
2022/08/18 03:13:55;;;;;;;;;;;;;;;17.01;95.00;96355.61;108501;1268;22458;-78
2022/08/18 03:16:24;;;;;;;16.10;14.30;;;;;;;16.99;95.35;96360.45;108497;1268;22543;-78
2022/08/18 03:18:53;;;;;;;15.80;14.20;;;;;;;17.02;95.60;96359.42;108441;1268;36389;-77
2022/08/18 03:21:24;;;;;;;15.70;14.20;;;;;;;17.04;95.86;96361.25;108523;1268;23748;-78
2022/08/18 03:23:55;;;;;;;18.60;16.70;;;;;;;17.08;96.59;96365.82;108486;1265;22530;-78
2022/08/18 03:26:23;;;;;;;;;;;;;;;17.16;97.07;96371.12;108513;1267;22515;-78
2022/08/18 03:28:54;;;;;;;18.10;16.40;;;;;;;17.28;97.62;96372.30;108427;1267;29669;-77
2022/08/18 03:31:23;;;;;;;;;;;;;;;17.46;97.73;96370.45;108528;1268;22648;-78
2022/08/18 03:33:52;;;;;;;18.50;16.80;;;;;;;17.59;97.39;96370.44;108530;1268;22533;-78
2022/08/18 03:36:24;;;;;;;18.30;16.50;;;;;;;17.62;96.97;96371.10;108490;1267;22581;-77
2022/08/18 03:38:53;;;;;;;19.20;17.40;;;;;;;17.71;97.00;96369.20;108410;1268;36127;-78
2022/08/18 03:41:25;;;;;;;19.90;17.90;;;;;;;17.81;97.07;96377.14;108544;1268;22529;-78
2022/08/18 03:43:54;;;;;;;19.30;17.50;;;;;;;17.85;96.71;96378.35;108441;1267;24104;-78
2022/08/18 03:46:23;;;;;;;20.00;17.90;;;;;;;17.87;96.45;96384.63;108501;1265;22643;-78
2022/08/18 03:48:53;;;;;;;18.80;16.80;;;;;;;17.88;96.24;96385.83;108449;1266;29934;-77
2022/08/18 03:51:24;;;;;;;19.20;17.30;;;;;;;17.92;96.33;96385.66;108513;1268;22561;-78
2022/08/18 03:53:53;;;;;;;20.40;18.40;;;;;;;18.02;96.74;96385.55;108544;1268;24191;-78
2022/08/18 03:56:25;;;;;;;20.30;18.50;;;;;;;18.09;96.58;96386.30;108520;1268;23848;-78
2022/08/18 03:58:57;;;;;;;20.30;18.20;;;;;;;18.07;96.38;96390.48;108403;1267;27659;-77
2022/08/18 04:01:28;;;;;;;19.70;17.70;;;;;;;18.08;96.20;96391.89;108531;1268;23852;-78
2022/08/18 04:03:59;;;;;;;20.30;18.50;;;;;;;18.09;96.10;96391.77;108496;1268;22562;-78
2022/08/18 04:06:29;;;;;;;19.30;17.40;;;;;;;18.06;96.03;96390.91;108512;1268;22504;-78
2022/08/18 04:09:01;;;;;;;19.70;17.70;;;;;;;18.08;95.85;96391.36;108504;1268;29041;-78
2022/08/18 04:11:33;;;;;;;19.30;17.60;;;;;;;18.14;95.65;96395.61;108508;1268;22559;-78
2022/08/18 04:14:01;;;;;;;19.30;17.50;;;;;;;18.17;95.50;96402.30;108496;1268;22542;-78
2022/08/18 04:16:32;;;;;;;21.10;17.50;;;;;;;18.19;95.66;96406.38;108517;1268;25216;-78
2022/08/18 04:19:02;;;;;;;19.30;17.30;;;;;;;18.23;95.71;96404.56;108326;1267;30322;-77
2022/08/18 04:21:32;;;;;;;18.70;17.00;;;;;;;18.27;95.57;96409.21;108470;1268;22535;-78
2022/08/18 04:24:06;;;;;;;19.40;17.50;;;;;;;18.33;95.42;96412.29;108437;1268;22580;-78
2022/08/18 04:26:36;;;;;;;18.80;17.20;;;;;;;18.38;95.02;96412.67;108542;1268;22701;-78
2022/08/18 04:29:06;;;;;;;19.90;17.70;;;;;;;18.41;94.86;96412.38;108527;1268;24323;-78
2022/08/18 04:31:35;;;;;;;18.60;16.90;;;;;;;18.56;95.05;96413.96;108385;1267;22628;-78
2022/08/18 04:34:04;;;;;;;17.50;15.80;;;;;;;18.82;94.95;96416.06;108521;1268;23324;-78
2022/08/18 04:36:35;;;;;;;17.10;15.60;;;;;;;19.24;94.93;96423.23;108512;1268;22501;-77
2022/08/18 04:39:03;;;;;;;;;;;;;;;20.07;95.43;96418.89;108448;1268;34680;-78
2022/08/18 04:41:32;;;;;;;15.20;13.90;;;;;;;21.27;94.65;96419.31;108487;1268;22658;-78
2022/08/18 04:44:03;;;;;;;15.90;14.20;;;;;;;22.34;92.07;96424.96;108548;1268;22539;-78
2022/08/18 04:46:39;;;;;;;14.00;12.70;;;;;;;23.30;89.23;96428.95;108517;1268;22592;-78
2022/08/18 04:49:09;;;;;;;14.70;13.40;;;;;;;24.19;85.73;96431.35;108419;1268;33750;-79
2022/08/18 04:51:42;;;;;;;14.30;11.00;;;;;;;24.92;83.48;96429.81;108528;1268;24285;-78
2022/08/18 04:54:11;;;;;;;14.70;13.20;;;;;;;25.62;80.88;96428.98;108547;1268;24226;-76
2022/08/18 04:56:39;;;;;;;13.90;12.50;;;;;;;26.23;77.84;96426.67;108540;1268;22529;-76
2022/08/18 04:59:10;;;;;;;14.00;12.60;;;;;;;26.89;76.45;96423.40;108458;1268;37704;-76
2022/08/18 05:01:40;;;;;;;13.80;12.40;;;;;;;27.56;73.64;96428.15;108527;1268;23704;-76
2022/08/18 05:04:08;;;;;;;;;;;;;;;28.05;71.33;96425.95;108574;1268;22562;-76
2022/08/18 05:06:41;;;;;;;14.30;12.90;;;;;;;28.34;68.20;96422.19;108490;1268;22543;-76
2022/08/18 05:09:11;;;;;;;14.00;12.60;;;;;;;28.74;67.83;96423.02;108451;1268;27869;-76
2022/08/18 05:11:43;;;;;;;13.50;12.00;;;;;;;29.39;66.30;96419.42;108499;1268;22534;-78
2022/08/18 05:14:11;;;;;;;13.20;12.00;;;;;;;30.31;65.13;96421.50;108523;1267;22710;-76
2022/08/18 05:16:40;;;;;;;14.30;12.90;;;;;;;30.64;60.72;96424.11;108536;1268;22694;-77
2022/08/18 05:19:10;;;;;;;13.60;12.30;;;;;;;30.19;58.38;96426.76;108483;1267;29370;-76
2022/08/18 05:21:40;;;;;;;12.40;11.30;;;;;;;30.14;58.44;96429.09;108518;1268;24204;-77
2022/08/18 05:24:10;;;;;;;12.60;11.30;;;;;;;30.11;56.85;96426.61;108548;1268;22601;-77
2022/08/18 05:26:41;;;;;;;12.80;11.60;;;;;;;30.35;57.70;96431.77;108523;1268;22586;-77
2022/08/18 05:29:09;;;;;;;13.60;12.00;;;;;;;31.09;57.81;96437.25;108506;1268;23373;-79
2022/08/18 05:31:41;;;;;;;13.90;12.50;;;;;;;31.77;55.82;96435.83;108526;1268;22575;-77
2022/08/18 05:34:10;;;;;;;14.10;12.70;;;;;;;32.15;53.80;96434.29;108437;1268;22548;-77
2022/08/18 05:37:03;;;;;;;13.00;11.70;;;;;;;32.14;52.22;96434.15;108577;1268;22743;-76
2022/08/18 05:39:41;;;;;;;13.80;11.80;;;;;;;31.58;49.27;96436.73;108403;1268;39962;-78
2022/08/18 05:42:15;;;;;;;11.40;10.40;;;;;;;31.03;50.17;96442.11;108503;1268;25426;-79
2022/08/18 05:44:47;;;;;;;13.00;11.70;;;;;;;31.60;51.08;96441.45;108605;1268;25291;-79
2022/08/18 05:47:21;;;;;;;11.80;10.60;;;;;;;31.94;50.17;96436.29;108524;1268;24065;-79
2022/08/18 05:49:50;;;;;;;14.60;11.40;;;;;;;32.62;49.96;96441.20;108485;1268;39821;-79
2022/08/18 05:52:26;;;;;;;13.10;11.80;;;;;;;33.23;48.08;96443.38;108450;1268;23823;-79
2022/08/18 05:57:50;;;;;;;13.00;11.50;;;;;;;33.39;46.52;96439.36;108447;1268;32989;-76
2022/08/18 06:00:22;;;;;;;11.90;10.80;;;;;;;33.91;45.92;96444.77;108528;1268;22625;-77
2022/08/18 06:02:58;;;;;;;11.60;10.50;;;;;;;34.84;46.21;96439.88;108520;1268;23851;-77
2022/08/18 06:05:31;;;;;;;12.00;10.90;;;;;;;35.35;44.75;96444.16;108534;1268;22597;-77
2022/08/18 06:08:03;;;;;;;11.80;10.60;;;;;;;36.20;45.04;96439.04;108428;1268;24303;-76
2022/08/18 06:10:33;;;;;;;12.00;10.80;;;;;;;37.01;43.66;96435.13;108365;1268;22628;-77
2022/08/18 06:13:03;;;;;;;12.60;10.30;;;;;;;37.16;42.26;96436.59;108501;1268;22562;-77
2022/08/18 06:15:44;;;;;;;11.20;10.10;;;;;;;37.35;41.38;96434.16;108523;1268;22629;-77
2022/08/18 06:18:34;;;;;;;10.90;9.80;;;;;;;37.77;41.70;96435.44;108427;1268;29911;-77
2022/08/18 06:21:15;;;;;;;10.50;9.40;;;;;;;38.39;40.17;96435.38;108642;1268;22530;-77
2022/08/18 06:23:50;;;;;;;11.30;10.20;;;;;;;38.72;39.92;96433.00;108521;1268;22680;-77
2022/08/18 06:26:25;;;;;;;11.10;9.90;;;;;;;39.62;39.50;96429.80;108503;1268;22561;-77
2022/08/18 06:29:05;;;;;;;9.70;8.90;;;;;;;40.44;38.43;96428.08;108438;1268;31312;-77
2022/08/18 06:31:41;;;;;;;9.70;8.70;;;;;;;41.13;37.02;96428.86;108485;1268;24226;-77
2022/08/18 06:34:24;;;;;;;15.20;8.00;;;;;;;41.64;36.29;96430.56;108523;1268;25261;-77
2022/08/18 06:36:57;;;;;;;8.70;7.80;;;;;;;42.02;35.18;96433.61;108508;1268;23797;-77
2022/08/18 06:39:34;;;;;;;8.70;7.00;;;;;;;42.28;34.81;96434.58;108317;1268;34480;-77
2022/08/18 06:42:04;;;;;;;9.00;7.50;;;;;;;42.82;34.49;96437.80;108480;1268;22475;-77
2022/08/18 06:44:37;;;;;;;9.00;7.10;;;;;;;43.26;33.63;96437.91;108499;1268;24309;-77
2022/08/18 06:47:14;;;;;;;7.90;7.10;;;;;;;43.69;32.73;96437.54;108506;1268;22580;-77
2022/08/18 06:49:50;;;;;;;7.80;6.90;;;;;;;43.74;32.12;96438.64;108435;1268;27480;-77
2022/08/18 06:52:28;;;;;;;7.60;6.80;;;;;;;43.78;32.00;96436.96;108539;1268;23312;-77
2022/08/18 06:55:00;;;;;;;9.00;7.00;;;;;;;44.11;31.53;96439.27;108499;1268;22773;-77
2022/08/18 06:57:32;;;;;;;7.30;6.50;;;;;;;44.41;31.33;96446.38;108501;1271;22696;-77
2022/08/18 07:00:09;;;;;;;9.90;6.90;;;;;;;44.80;30.82;96445.39;108407;1268;25215;-77
2022/08/18 07:02:53;;;;;;;8.40;7.20;;;;;;;44.76;29.27;96451.30;108462;1268;23805;-77
2022/08/18 07:05:24;;;;;;;8.60;7.50;;;;;;;44.11;29.11;96454.48;108519;1268;22759;-77
2022/08/18 07:08:10;;;;;;;8.00;7.10;;;;;;;43.59;29.49;96462.89;108474;1268;53412;-77
2022/08/18 07:10:40;;;;;;;8.00;7.20;;;;;;;44.11;29.99;96456.95;108510;1268;22568;-77
2022/08/18 07:13:22;;;;;;;7.30;6.60;;;;;;;44.77;29.77;96459.70;108556;1268;22495;-77
2022/08/18 07:15:50;;;;;;;8.50;6.80;;;;;;;45.36;28.96;96455.83;108431;1268;23365;-77
2022/08/18 07:18:25;;;;;;;8.50;6.60;;;;;;;45.68;28.62;96454.43;108469;1268;32878;-78
2022/08/18 07:20:57;;;;;;;11.10;6.70;;;;;;;46.13;28.30;96453.38;108531;1268;24055;-77
2022/08/18 07:23:29;;;;;;;6.90;6.30;;;;;;;46.04;27.20;96453.33;108519;1268;25273;-78
2022/08/18 07:26:10;;;;;;;6.80;6.10;;;;;;;45.93;26.78;96451.08;108445;1268;24286;-78
2022/08/18 07:28:43;;;;;;;6.80;6.00;;;;;;;44.89;26.34;96451.33;108471;1268;31898;-77
2022/08/18 07:31:30;;;;;;;7.00;6.30;;;;;;;44.73;27.73;96450.80;108559;1268;22540;-78
2022/08/18 07:34:03;;;;;;;6.30;5.70;;;;;;;45.30;26.75;96451.01;108560;1268;22513;-78
2022/08/18 07:36:37;;;;;;;6.80;6.10;;;;;;;44.55;26.47;96451.14;108562;1268;23938;-77
2022/08/18 07:39:13;;;;;;;7.60;6.30;;;;;;;44.78;27.15;96454.51;108480;1268;30487;-77
2022/08/18 07:41:47;;;;;;;7.50;6.40;;;;;;;44.63;26.49;96449.93;108542;1268;22733;-77
2022/08/18 07:44:23;;;;;;;7.50;5.90;;;;;;;44.93;26.57;96450.83;108550;1268;22711;-77
2022/08/18 07:46:59;;;;;;;7.70;5.50;;;;;;;44.67;26.22;96448.77;108619;1268;24263;-77
2022/08/18 07:49:34;;;;;;;8.90;6.20;;;;;;;45.26;26.73;96444.65;108503;1268;24454;-77
2022/08/18 07:52:06;;;;;;;9.00;5.70;;;;;;;46.06;26.81;96444.48;108586;1268;22565;-78
2022/08/18 07:54:58;;;;;;;7.00;6.30;;;;;;;45.69;24.13;96439.42;108550;1268;24031;-77
2022/08/18 07:57:41;;;;;;;7.60;6.40;;;;;;;44.86;26.38;96434.25;108537;1268;22482;-77
2022/08/18 08:00:19;;;;;;;7.60;6.70;;;;;;;45.48;26.50;96430.78;108426;1268;24437;-77
2022/08/18 08:02:58;;;;;;;7.60;6.30;;;;;;;46.42;26.69;96439.00;108524;1268;22615;-77
2022/08/18 08:05:39;;;;;;;8.60;6.20;;;;;;;46.99;25.38;96443.13;108548;1266;22532;-77
2022/08/18 08:08:28;;;;;;;7.40;6.60;;;;;;;47.11;25.36;96443.13;108450;1268;31357;-77
2022/08/18 08:11:10;;;;;;;7.60;6.70;;;;;;;46.77;25.36;96442.02;108576;1268;25264;-77
2022/08/18 08:13:52;;;;;;;8.60;6.80;;;;;;;47.11;24.53;96441.23;108531;1267;22590;-77
2022/08/18 08:16:40;;;;;;;7.20;6.20;;;;;;;47.06;25.02;96440.86;108562;1266;22568;-77
2022/08/18 08:19:23;;;;;;;8.00;6.30;;;;;;;47.22;24.47;96438.59;108512;1267;23913;-77
2022/08/18 08:21:59;;;;;;;7.40;6.00;;;;;;;47.24;25.09;96436.29;108520;1268;25370;-77
2022/08/18 08:24:37;;;;;;;9.60;6.30;;;;;;;47.85;24.69;96435.14;108585;1268;22776;-77
2022/08/18 08:27:13;;;;;;;7.50;6.50;;;;;;;48.03;24.45;96436.45;108517;1268;22549;-80
2022/08/18 08:29:48;;;;;;;7.20;6.30;;;;;;;48.29;24.38;96435.71;108456;1268;26460;-77
2022/08/18 08:32:29;;;;;;;8.00;7.20;;;;;;;48.59;23.90;96429.80;108442;1266;22536;-77
2022/08/18 08:35:02;;;;;;;7.20;6.30;;;;;;;48.35;24.00;96431.39;108548;1268;25262;-77
2022/08/18 08:37:41;;;;;;;7.60;6.30;;;;;;;48.47;23.98;96430.40;108545;1268;22533;-77
2022/08/18 08:40:16;;;;;;;7.30;6.50;;;;;;;48.78;23.90;96431.11;108476;1268;22600;-77
2022/08/18 08:42:50;;;;;;;7.70;6.50;;;;;;;48.58;22.48;96432.33;108589;1268;23717;-77
2022/08/18 08:45:24;;;;;;;7.70;6.20;;;;;;;45.82;21.16;96433.98;108556;1268;22565;-77
2022/08/18 08:48:04;;;;;;;8.30;6.10;;;;;;;42.53;23.54;96428.91;108448;1268;33982;-77
2022/08/18 08:50:40;;;;;;;7.50;6.30;;;;;;;40.63;25.92;96426.73;108568;1268;22470;-77
2022/08/18 08:53:17;;;;;;;7.50;6.20;;;;;;;40.19;26.93;96430.72;108453;1267;22556;-77
2022/08/18 08:55:50;;;;;;;11.10;7.10;;;;;;;40.03;27.57;96431.22;108557;1268;22575;-77
2022/08/18 08:58:25;;;;;;;8.80;6.90;;;;;;;40.00;27.33;96433.21;108415;1268;114977;-77
2022/08/18 09:01:00;;;;;;;9.10;7.20;;;;;;;38.98;27.79;96437.08;108438;1268;23399;-77
2022/08/18 09:03:39;;;;;;;7.50;6.70;;;;;;;38.19;29.12;96437.15;108579;1268;22558;-77
2022/08/18 09:06:20;;;;;;;7.70;6.90;;;;;;;38.24;30.54;96440.79;108531;1268;22549;-77
2022/08/18 09:09:15;;;;;;;9.30;7.30;;;;;;;38.63;29.79;96443.89;108460;1268;31094;-77
2022/08/18 09:12:05;;;;;;;7.70;6.90;;;;;;;37.81;29.38;96446.19;108579;1268;22647;-79
2022/08/18 09:14:47;;;;;;;;;;;;;;;36.69;30.47;96443.27;108584;1268;23028;-79
2022/08/18 09:17:44;;;;;;;8.90;8.00;;;;;;;36.41;32.06;96436.88;108624;1268;22552;-79
2022/08/18 09:20:29;;;;;;;11.40;8.20;;;;;;;36.46;31.80;96440.14;108609;1268;24230;-79
2022/08/18 09:23:05;;;;;;;9.80;8.80;;;;;;;35.80;32.87;96439.92;108485;1268;22589;-79
2022/08/18 09:25:46;;;;;;;10.80;8.40;;;;;;;35.07;34.15;96440.52;108529;1268;22577;-78
2022/08/18 09:28:19;;;;;;;9.60;8.30;;;;;;;34.58;35.10;96437.02;108331;1267;42104;-78
2022/08/18 09:31:13;;;;;;;10.90;8.60;;;;;;;34.49;35.72;96437.38;108576;1268;24069;-79
2022/08/18 09:34:12;;;;;;;8.80;7.90;;;;;;;33.79;36.27;96439.05;108556;1268;22599;-78
2022/08/18 09:36:53;;;;;;;9.90;8.10;;;;;;;32.39;37.31;96440.66;108588;1268;25380;-78
2022/08/18 09:42:32;;;;;;;11.70;7.90;;;;;;;31.14;40.69;96437.09;108549;1268;22898;-79
2022/08/18 09:45:09;;;;;;;11.50;8.30;;;;;;;31.19;41.16;96439.90;108559;1268;23961;-78
2022/08/18 09:48:22;;;;;;;11.50;8.50;;;;;;;31.14;41.34;96441.08;108614;1268;22684;-78
2022/08/18 09:51:14;;;;;;;9.00;8.20;;;;;;;31.14;42.22;96444.46;108445;1268;22536;-78
2022/08/18 09:54:12;;;;;;;15.50;9.00;;;;;;;31.37;42.33;96448.23;108424;1268;25349;-78
2022/08/18 09:57:18;;;;;;;10.10;8.20;;;;;;;31.59;41.81;96444.99;108612;1268;23358;-78
2022/08/18 10:00:19;;;;;;;13.30;9.30;;;;;;;31.16;41.40;96445.34;108507;1268;24905;-78
2022/08/18 10:03:13;;;;;;;10.90;9.40;;;;;;;30.44;42.48;96448.54;108622;1268;22624;-78
2022/08/18 10:05:59;;;;;;;9.30;8.40;;;;;;;30.26;43.04;96451.75;108542;1268;24165;-78
2022/08/18 10:08:59;;;;;;;10.70;8.60;;;;;;;30.23;43.62;96449.59;108492;1268;24423;-78
2022/08/18 10:11:42;;;;;;;11.10;9.10;;;;;;;30.48;43.92;96448.39;108397;1268;22487;-78
2022/08/18 10:14:37;;;;;;;10.60;9.00;;;;;;;30.54;43.62;96449.73;108484;1267;23842;-78
2022/08/18 10:17:23;;;;;;;12.50;9.10;;;;;;;30.78;43.93;96439.77;108413;1268;22555;-78
2022/08/18 10:20:03;;;;;;;11.80;8.50;;;;;;;30.71;43.93;96444.09;108442;1268;32185;-78
2022/08/18 10:22:42;;;;;;;9.70;8.70;;;;;;;30.41;45.09;96442.78;108585;1268;23874;-78
2022/08/18 10:25:14;;;;;;;11.80;8.80;;;;;;;30.33;45.41;96437.20;108556;1268;22591;-78
2022/08/18 10:27:55;;;;;;;11.70;8.70;;;;;;;30.60;46.20;96434.64;108475;1265;36754;-78
2022/08/18 10:31:01;;;;;;;12.10;9.20;;;;;;;30.94;45.98;96432.26;107668;1267;1324959;-78
2022/08/18 10:33:55;;;;;;;11.50;8.70;;;;;;;31.18;45.45;96433.12;108583;1268;22500;-78
2022/08/18 10:36:39;;;;;;;12.60;9.00;;;;;;;31.15;45.50;96435.73;108581;1268;22570;-78
2022/08/18 10:39:12;;;;;;;12.90;8.70;;;;;;;31.30;45.41;96436.05;108497;1268;32033;-78
2022/08/18 10:41:55;;;;;;;23.50;10.30;;;;;;;31.36;44.54;96433.30;108589;1268;24364;-78
2022/08/18 10:44:26;;;;;;;10.10;8.70;;;;;;;30.94;44.33;96429.83;108563;1268;22658;-79
2022/08/18 10:46:57;;;;;;;9.30;8.10;;;;;;;30.51;44.74;96426.63;108575;1268;22847;-78
2022/08/18 10:49:30;;;;;;;10.80;8.40;;;;;;;30.35;46.03;96427.41;108489;1268;32319;-78
2022/08/18 10:52:38;;;;;;;9.70;8.40;;;;;;;30.56;46.25;96415.61;108575;1268;22623;-78
2022/08/18 10:55:26;;;;;;;9.60;8.70;;;;;;;30.57;46.43;96413.17;108569;1268;22553;-77
2022/08/18 10:58:18;;;;;;;11.00;9.00;;;;;;;30.75;46.25;96408.55;108357;1267;25264;-78
2022/08/18 11:01:02;;;;;;;8.90;8.00;;;;;;;30.58;45.32;96406.76;108557;1268;22571;-78
2022/08/18 11:03:48;;;;;;;10.00;8.40;;;;;;;30.10;45.63;96407.78;108583;1268;22591;-78
2022/08/18 11:06:22;;;;;;;11.50;9.10;;;;;;;29.76;46.27;96411.27;108546;1268;22560;-78
2022/08/18 11:08:54;;;;;;;10.30;8.50;;;;;;;29.89;47.26;96409.06;108543;1268;27084;-78
2022/08/18 11:11:28;;;;;;;12.20;8.50;;;;;;;30.18;47.38;96408.17;108405;1268;22684;-78
2022/08/18 11:14:07;;;;;;;12.60;8.50;;;;;;;30.51;47.50;96402.54;108560;1268;23067;-77
2022/08/18 11:16:48;;;;;;;10.60;8.50;;;;;;;30.70;47.02;96408.70;108482;1268;22528;-78
2022/08/18 11:19:21;;;;;;;9.70;8.60;;;;;;;30.54;45.65;96409.23;108445;1267;28733;-78
2022/08/18 11:21:52;;;;;;;10.20;8.90;;;;;;;30.21;45.73;96401.73;108553;1267;22650;-78
2022/08/18 11:24:23;;;;;;;9.00;7.90;;;;;;;30.01;46.29;96403.45;108523;1268;22470;-78
2022/08/18 11:26:55;;;;;;;13.00;8.20;;;;;;;30.18;46.71;96404.11;108533;1268;22578;-79
2022/08/18 11:29:28;;;;;;;11.90;8.60;;;;;;;30.38;46.27;96405.40;108507;1268;23161;-78
2022/08/18 11:32:00;;;;;;;9.40;8.40;;;;;;;30.15;45.07;96402.28;108509;1268;22585;-79
2022/08/18 11:34:35;;;;;;;9.40;8.50;;;;;;;30.10;46.88;96400.14;108534;1268;22557;-79
2022/08/18 11:37:07;;;;;;;10.20;8.30;;;;;;;30.28;46.74;96399.05;108534;1268;22846;-79
2022/08/18 11:39:48;;;;;;;10.20;8.70;;;;;;;30.15;46.29;96392.81;108452;1267;38485;-78
2022/08/18 11:42:19;;;;;;;9.20;8.30;;;;;;;30.20;46.38;96393.08;108547;1268;23301;-78
2022/08/18 11:44:47;;;;;;;10.90;8.80;;;;;;;30.34;46.88;96383.95;108527;1268;22498;-78
2022/08/18 11:47:21;;;;;;;8.80;8.00;;;;;;;30.50;46.78;96377.30;108542;1266;22551;-78
2022/08/18 11:49:59;;;;;;;10.80;9.00;;;;;;;30.61;47.25;96373.95;108473;1268;24230;-78
2022/08/18 11:52:29;;;;;;;11.30;8.60;;;;;;;30.78;47.11;96373.55;108549;1267;22542;-78
2022/08/18 11:55:02;;;;;;;9.60;8.60;;;;;;;30.93;46.94;96372.34;108534;1268;22532;-79
2022/08/18 11:57:53;;;;;;;9.70;7.60;;;;;;;30.98;47.29;96367.65;108552;1268;22539;-78
2022/08/18 12:00:54;;;;;;;10.00;8.00;;;;;;;31.10;47.17;96366.88;108448;1268;22529;-78
2022/08/18 12:03:30;;;;;;;10.20;8.00;;;;;;;31.01;46.29;96362.44;108510;1268;22565;-78